Time;durP1;ratioP1;P1;durP2;ratioP2;P2;SDS_P1;SDS_P2;PMS_P1;PMS_P2;Temp;Humidity;BMP_temperature;BMP_pressure;BME280_temperature;BME280_humidity;BME280_pressure;Samples;Min_cycle;Max_cycle;Signal;HPM_P1;HPM_P2
2023/11/16 00:01:37;;;;;;;15.65;6.40;;;;;;;14.53;77.33;101398.44;4936796;29;20443;-63
2023/11/16 00:04:09;;;;;;;20.02;7.28;;;;;;;14.50;77.84;101396.31;4935495;29;20454;-64
2023/11/16 00:06:39;;;;;;;21.77;6.72;;;;;;;14.60;77.50;101393.22;4933503;29;20066;-63
2023/11/16 00:09:06;;;;;;;19.50;6.18;;;;;;;14.47;77.51;101385.06;4936135;29;20051;-62
2023/11/16 00:11:34;;;;;;;15.57;6.55;;;;;;;14.51;77.92;101386.00;4936354;29;20064;-64
2023/11/16 00:14:01;;;;;;;18.27;5.80;;;;;;;14.57;77.40;101379.97;4935534;28;20048;-63
2023/11/16 00:16:28;;;;;;;18.25;6.47;;;;;;;14.44;77.99;101371.81;4930096;29;20150;-64
2023/11/16 00:18:57;;;;;;;18.38;5.43;;;;;;;14.37;77.78;101363.16;4950148;29;20063;-63
2023/11/16 00:21:24;;;;;;;18.33;4.93;;;;;;;14.44;77.78;101358.78;4935034;29;20110;-63
2023/11/16 00:23:52;;;;;;;17.77;5.28;;;;;;;14.49;77.56;101349.47;4935410;29;20391;-62
2023/11/16 00:26:21;;;;;;;12.52;4.80;;;;;;;14.47;78.04;101344.25;4948814;28;20055;-64
2023/11/16 00:28:54;;;;;;;25.42;4.78;;;;;;;14.44;77.95;101346.88;4963656;28;20137;-63
2023/11/16 00:31:23;;;;;;;14.73;3.88;;;;;;;14.46;77.46;101339.06;4934735;29;20052;-63
2023/11/16 00:33:50;;;;;;;20.08;4.88;;;;;;;14.39;77.99;101333.16;4951688;28;20062;-63
2023/11/16 00:36:18;;;;;;;15.43;4.20;;;;;;;14.36;78.24;101340.19;4933005;29;20055;-64
2023/11/16 00:38:45;;;;;;;17.10;5.10;;;;;;;14.33;78.69;101332.50;4950857;29;20063;-63
2023/11/16 00:41:15;;;;;;;20.92;4.35;;;;;;;14.35;78.26;101330.22;4940002;29;20058;-63
2023/11/16 00:43:43;;;;;;;14.38;4.07;;;;;;;14.44;78.24;101328.28;4928625;29;20050;-64
2023/11/16 00:46:11;;;;;;;14.35;4.47;;;;;;;14.44;78.37;101313.59;4934326;28;20657;-64
2023/11/16 00:48:39;;;;;;;17.13;5.03;;;;;;;14.40;77.81;101301.56;4915276;29;20396;-65
2023/11/16 00:51:10;;;;;;;13.40;5.28;;;;;;;14.23;78.95;101302.31;4965772;28;20074;-63
2023/11/16 00:53:42;;;;;;;18.73;6.13;;;;;;;14.33;78.77;101302.03;4935804;29;20487;-63
2023/11/16 00:56:10;;;;;;;15.65;6.03;;;;;;;14.21;78.85;101301.00;4928105;29;20054;-63
2023/11/16 00:58:38;;;;;;;25.27;7.28;;;;;;;13.83;80.31;101299.91;4949406;29;20059;-64
2023/11/16 01:01:06;;;;;;;23.83;5.88;;;;;;;14.06;80.73;101298.69;4949048;28;20060;-64
2023/11/16 01:03:33;;;;;;;15.57;5.82;;;;;;;14.13;79.57;101294.31;4935119;29;20059;-63
2023/11/16 01:06:02;;;;;;;18.30;6.05;;;;;;;14.10;79.88;101285.81;4965290;28;20055;-63
2023/11/16 01:08:33;;;;;;;19.77;7.00;;;;;;;14.16;79.52;101284.53;4934276;29;20047;-63
2023/11/16 01:11:02;;;;;;;18.48;7.13;;;;;;;14.06;79.81;101287.59;4935619;29;20066;-63
2023/11/16 01:13:38;;;;;;;16.97;7.27;;;;;;;14.02;79.91;101289.38;4935014;29;20044;-64
2023/11/16 01:16:12;;;;;;;21.48;6.55;;;;;;;13.86;79.99;101282.69;4933014;29;20299;-63
2023/11/16 01:18:50;;;;;;;18.98;6.63;;;;;;;13.83;80.95;101286.91;4935517;29;20036;-63
2023/11/16 01:21:18;;;;;;;21.67;6.85;;;;;;;13.88;81.12;101278.44;4933819;29;20055;-63
2023/11/16 01:23:47;;;;;;;18.15;7.72;;;;;;;13.98;80.76;101269.03;4934883;29;20071;-63
2023/11/16 01:26:17;;;;;;;21.13;6.45;;;;;;;13.95;80.16;101266.88;4932928;29;20051;-65
2023/11/16 01:28:47;;;;;;;19.50;7.00;;;;;;;13.75;80.36;101267.50;4933604;29;20043;-64
2023/11/16 01:31:15;;;;;;;17.23;6.57;;;;;;;13.69;81.54;101263.22;4936033;29;20067;-64
2023/11/16 01:33:43;;;;;;;13.13;5.63;;;;;;;13.71;81.30;101259.00;4937913;29;20047;-64
2023/11/16 01:36:10;;;;;;;18.10;6.50;;;;;;;13.66;81.75;101253.63;4965132;28;20062;-63
2023/11/16 01:38:38;;;;;;;21.83;7.13;;;;;;;13.80;82.08;101256.25;4933830;29;20056;-64
2023/11/16 01:41:08;;;;;;;17.52;6.20;;;;;;;13.86;82.07;101257.75;4969791;28;20063;-64
2023/11/16 01:43:36;;;;;;;18.50;6.28;;;;;;;13.87;81.51;101253.84;4949033;28;20071;-64
2023/11/16 01:46:07;;;;;;;23.90;7.57;;;;;;;13.97;81.39;101247.97;4933952;29;20059;-64
2023/11/16 01:48:36;;;;;;;22.85;7.22;;;;;;;13.57;82.18;101252.78;4937111;29;20054;-65
2023/11/16 01:51:08;;;;;;;13.98;6.47;;;;;;;13.42;83.66;101250.44;4932750;29;20440;-64
2023/11/16 01:53:39;;;;;;;20.40;6.80;;;;;;;13.12;84.39;101240.19;4933993;29;20051;-63
2023/11/16 01:56:07;;;;;;;18.48;7.15;;;;;;;13.03;87.40;101229.09;4948494;29;20055;-64
2023/11/16 01:58:35;;;;;;;19.98;7.40;;;;;;;12.66;85.89;101234.22;4932612;29;20058;-64
2023/11/16 02:01:04;;;;;;;23.83;7.97;;;;;;;13.07;87.46;101232.03;4949342;28;20067;-64
2023/11/16 02:03:33;;;;;;;20.80;7.73;;;;;;;13.14;85.88;101241.53;4933442;29;20400;-65
2023/11/16 02:06:03;;;;;;;19.00;7.82;;;;;;;13.37;85.24;101234.78;4958034;28;20306;-64
2023/11/16 02:08:31;;;;;;;20.70;8.15;;;;;;;13.38;84.70;101239.19;4933905;29;20055;-64
2023/11/16 02:10:58;;;;;;;22.30;8.35;;;;;;;13.45;84.66;101244.25;4934113;29;20054;-64
2023/11/16 02:13:26;;;;;;;15.27;7.85;;;;;;;13.61;83.46;101242.69;4917304;29;20047;-64
2023/11/16 02:15:57;;;;;;;19.17;8.05;;;;;;;13.11;85.70;101249.66;4934316;28;20048;-65
2023/11/16 02:18:25;;;;;;;19.52;8.23;;;;;;;12.98;86.15;101239.44;4948751;29;20437;-64
2023/11/16 02:20:54;;;;;;;22.17;8.05;;;;;;;13.32;85.83;101245.16;4964336;28;20043;-63
2023/11/16 02:23:22;;;;;;;31.63;9.80;;;;;;;13.54;84.56;101237.63;4947187;28;20070;-66
2023/11/16 02:25:51;;;;;;;23.88;8.60;;;;;;;13.59;83.18;101228.34;4916230;29;20131;-63
2023/11/16 02:28:20;;;;;;;23.65;8.48;;;;;;;13.58;83.50;101230.31;4963694;28;20059;-63
2023/11/16 02:30:47;;;;;;;18.35;8.20;;;;;;;13.30;84.23;101226.13;4932022;29;20051;-63
2023/11/16 02:33:15;;;;;;;25.10;9.18;;;;;;;13.28;83.69;101217.34;4948232;28;20066;-63
2023/11/16 02:35:43;;;;;;;22.08;8.88;;;;;;;13.45;83.85;101208.28;4952267;28;20062;-63
2023/11/16 02:38:13;;;;;;;24.05;8.82;;;;;;;13.55;84.26;101203.28;4916688;29;20618;-64
2023/11/16 02:40:41;;;;;;;26.20;9.10;;;;;;;13.58;84.16;101201.84;4936579;29;20441;-63
2023/11/16 02:43:08;;;;;;;20.08;9.18;;;;;;;13.26;82.59;101204.97;4948898;29;20058;-64
2023/11/16 02:45:36;;;;;;;20.30;8.70;;;;;;;13.57;83.91;101203.78;4916612;29;20052;-63
2023/11/16 02:48:04;;;;;;;21.90;8.38;;;;;;;13.02;83.71;101191.50;4964693;28;20075;-66
2023/11/16 02:50:32;;;;;;;26.50;9.05;;;;;;;13.27;86.08;101189.97;4938760;29;20052;-66
2023/11/16 02:53:00;;;;;;;21.23;8.40;;;;;;;13.48;84.77;101179.97;4948268;29;20609;-66
2023/11/16 02:55:27;;;;;;;22.15;9.38;;;;;;;13.30;84.89;101168.03;4932940;29;20050;-64
2023/11/16 02:57:57;;;;;;;22.23;8.15;;;;;;;13.33;84.75;101172.13;4949317;29;20052;-63
2023/11/16 03:00:25;;;;;;;19.60;8.68;;;;;;;13.34;84.54;101160.72;4935358;29;20067;-63
2023/11/16 03:02:53;;;;;;;24.70;8.25;;;;;;;13.31;84.33;101164.13;4935399;28;20048;-65
2023/11/16 03:05:23;;;;;;;21.60;8.85;;;;;;;13.18;85.00;101167.81;4938020;29;20063;-66
2023/11/16 03:07:50;;;;;;;18.02;7.72;;;;;;;13.38;84.73;101160.91;4938054;29;20503;-65
2023/11/16 03:10:18;;;;;;;24.27;8.20;;;;;;;12.64;86.47;101159.09;4937765;29;20372;-65
2023/11/16 03:12:45;;;;;;;19.45;7.97;;;;;;;13.03;86.86;101159.13;4936695;29;20067;-62
2023/11/16 03:15:13;;;;;;;23.50;7.55;;;;;;;13.19;86.51;101149.28;4938536;29;20083;-63
2023/11/16 03:17:44;;;;;;;26.77;8.60;;;;;;;12.87;86.83;101142.13;4937521;29;20044;-63
2023/11/16 03:20:17;;;;;;;17.50;8.43;;;;;;;12.52;86.70;101137.53;4951030;29;20535;-65
2023/11/16 03:22:44;;;;;;;22.00;8.82;;;;;;;12.60;88.08;101135.97;4936242;29;20056;-66
2023/11/16 03:25:12;;;;;;;24.33;9.40;;;;;;;12.86;86.78;101134.16;4968176;28;20052;-66
2023/11/16 03:27:41;;;;;;;20.83;9.07;;;;;;;13.07;85.53;101125.00;4951420;28;20507;-66
2023/11/16 03:30:08;;;;;;;20.40;9.07;;;;;;;12.69;85.82;101112.78;4952466;28;20055;-64
2023/11/16 03:32:36;;;;;;;21.40;8.77;;;;;;;13.10;86.40;101102.25;4904464;29;20066;-64
2023/11/16 03:35:05;;;;;;;22.75;9.20;;;;;;;13.18;86.12;101095.91;4936785;29;20063;-64
2023/11/16 03:37:32;;;;;;;21.65;9.85;;;;;;;13.14;84.72;101085.81;4937453;29;20143;-64
2023/11/16 03:40:04;;;;;;;20.48;8.48;;;;;;;13.19;85.86;101092.00;4950934;28;20052;-64
2023/11/16 03:42:32;;;;;;;23.42;8.57;;;;;;;13.32;84.56;101087.47;4934367;29;20180;-64
2023/11/16 03:44:59;;;;;;;20.17;8.20;;;;;;;12.93;83.40;101080.03;4936971;29;20066;-64
2023/11/16 03:47:28;;;;;;;18.38;7.90;;;;;;;12.48;85.47;101072.19;4934506;29;20055;-63
2023/11/16 03:49:58;;;;;;;21.33;8.68;;;;;;;12.77;87.70;101061.41;4936415;29;20059;-63
2023/11/16 03:52:25;;;;;;;22.00;8.15;;;;;;;12.92;86.36;101056.25;4935799;29;20533;-66
2023/11/16 03:54:52;;;;;;;17.67;8.00;;;;;;;13.06;86.34;101054.22;4950543;29;20048;-66
2023/11/16 03:57:20;;;;;;;19.65;8.25;;;;;;;12.84;87.06;101053.47;4919126;29;20060;-66
2023/11/16 03:59:49;;;;;;;20.85;8.00;;;;;;;12.85;87.31;101058.69;4936148;29;20047;-67
2023/11/16 04:02:17;;;;;;;19.13;7.50;;;;;;;12.79;87.99;101059.97;4919016;29;20051;-66
2023/11/16 04:04:47;;;;;;;19.63;7.65;;;;;;;12.45;87.84;101055.09;4935013;29;20348;-64
2023/11/16 04:07:16;;;;;;;;;;;;;;;12.56;88.94;101050.13;4935930;29;20052;-63
2023/11/16 04:09:44;;;;;;;26.08;8.27;;;;;;;12.58;89.36;101044.28;4965563;28;19953;-64
2023/11/16 04:12:11;;;;;;;22.92;8.40;;;;;;;12.80;89.39;101036.72;4981243;28;20055;-64
2023/11/16 04:14:40;;;;;;;19.58;8.75;;;;;;;12.68;87.34;101042.03;4935650;29;20178;-65
2023/11/16 04:17:13;;;;;;;24.37;7.97;;;;;;;12.78;87.95;101038.19;4950786;29;20064;-64
2023/11/16 04:19:41;;;;;;;17.90;7.97;;;;;;;12.39;87.72;101031.53;4928506;29;20499;-63
2023/11/16 04:22:10;;;;;;;15.38;7.38;;;;;;;12.70;88.47;101028.72;4935383;29;20062;-65
2023/11/16 04:24:40;;;;;;;19.33;7.25;;;;;;;12.72;86.73;101006.28;4939696;29;20416;-64
2023/11/16 04:27:09;;;;;;;18.45;7.53;;;;;;;12.64;88.61;101012.63;4966230;28;20055;-63
2023/11/16 04:29:37;;;;;;;20.17;7.18;;;;;;;12.98;87.96;101008.00;4933414;29;20051;-63
2023/11/16 04:32:05;;;;;;;22.52;6.75;;;;;;;12.90;87.96;101007.97;4936186;29;20056;-64
2023/11/16 04:34:33;;;;;;;19.75;6.55;;;;;;;12.80;84.94;100998.00;4940423;29;20047;-64
2023/11/16 04:37:04;;;;;;;16.38;6.60;;;;;;;12.93;87.60;101002.63;4934771;29;20055;-63
2023/11/16 04:39:31;;;;;;;20.17;6.85;;;;;;;12.88;87.62;100994.47;4935041;29;20051;-64
2023/11/16 04:41:59;;;;;;;17.10;6.25;;;;;;;12.48;86.61;100988.16;4934138;29;20055;-63
2023/11/16 04:44:26;;;;;;;18.70;6.22;;;;;;;12.54;88.12;100982.47;4934328;29;20064;-64
2023/11/16 04:46:53;;;;;;;18.02;6.13;;;;;;;12.67;88.31;100973.28;4933843;29;20051;-63
2023/11/16 04:49:20;;;;;;;16.83;5.75;;;;;;;12.28;90.07;100968.59;4949556;29;20067;-64
2023/11/16 04:51:49;;;;;;;17.73;6.78;;;;;;;12.39;89.99;100958.88;4939197;28;20040;-65
2023/11/16 04:54:17;;;;;;;19.65;7.07;;;;;;;12.13;89.58;100930.34;4935450;29;20054;-63
2023/11/16 04:56:44;;;;;;;17.00;6.85;;;;;;;12.04;92.17;100921.22;4935242;29;20063;-64
2023/11/16 04:59:11;;;;;;;21.40;6.70;;;;;;;12.21;91.61;100922.09;4934992;29;20056;-63
2023/11/16 05:01:39;;;;;;;18.25;7.05;;;;;;;12.68;91.60;100914.09;4949408;29;20048;-64
2023/11/16 05:04:07;;;;;;;18.58;6.43;;;;;;;12.89;89.00;100907.63;4934588;29;20071;-65
2023/11/16 05:06:40;;;;;;;19.77;6.30;;;;;;;12.82;88.85;100895.41;4932665;29;20056;-66
2023/11/16 05:09:07;;;;;;;19.52;6.57;;;;;;;12.88;88.93;100889.41;4964781;28;20060;-66
2023/11/16 05:11:35;;;;;;;16.15;6.18;;;;;;;12.41;89.47;100890.31;4935102;29;20059;-65
2023/11/16 05:14:03;;;;;;;18.23;6.82;;;;;;;12.36;92.35;100882.97;4949642;29;20052;-66
2023/11/16 05:16:30;;;;;;;18.75;7.10;;;;;;;12.24;92.13;100884.72;4933464;29;20059;-66
2023/11/16 05:18:58;;;;;;;19.10;6.10;;;;;;;12.09;92.61;100888.75;4932852;29;20388;-66
2023/11/16 05:21:26;;;;;;;24.35;7.50;;;;;;;11.89;93.73;100880.22;4965654;28;20074;-66
2023/11/16 05:23:54;;;;;;;19.08;6.80;;;;;;;11.86;94.28;100883.59;4934711;29;20119;-66
2023/11/16 05:26:21;;;;;;;19.30;7.40;;;;;;;12.41;95.39;100882.81;4928041;29;20074;-66
2023/11/16 05:28:49;;;;;;;17.50;7.40;;;;;;;12.07;94.85;100893.78;4933537;29;20082;-66
2023/11/16 05:31:16;;;;;;;16.50;7.07;;;;;;;12.16;95.63;100891.88;4934881;29;20058;-67
2023/11/16 05:33:43;;;;;;;19.83;8.27;;;;;;;12.33;96.05;100874.53;4937543;29;20379;-67
2023/11/16 05:36:11;;;;;;;21.08;7.65;;;;;;;12.09;93.82;100877.72;4937876;29;20070;-66
2023/11/16 05:38:38;;;;;;;20.10;7.38;;;;;;;12.18;96.00;100878.56;4935344;29;20047;-66
2023/11/16 05:41:06;;;;;;;15.98;7.38;;;;;;;12.22;95.23;100867.69;4935387;29;20551;-65
2023/11/16 05:43:34;;;;;;;20.60;7.00;;;;;;;12.48;93.01;100853.94;4917677;29;20047;-67
2023/11/16 05:46:02;;;;;;;18.33;6.85;;;;;;;11.97;94.78;100851.84;4932508;29;20526;-66
2023/11/16 05:48:29;;;;;;;19.80;6.93;;;;;;;12.13;95.30;100822.66;4935010;29;20043;-66
2023/11/16 05:50:59;;;;;;;15.60;6.53;;;;;;;11.93;96.73;100812.19;4932896;29;20055;-65
2023/11/16 05:53:27;;;;;;;16.08;6.60;;;;;;;12.19;95.35;100800.09;4933670;29;20669;-66
2023/11/16 05:55:57;;;;;;;19.08;7.10;;;;;;;12.00;95.68;100788.53;4934325;29;20062;-66
2023/11/16 05:58:24;;;;;;;15.32;7.25;;;;;;;11.94;96.43;100769.69;4933108;29;20044;-67
2023/11/16 06:00:55;;;;;;;19.17;6.55;;;;;;;11.97;97.07;100763.50;4948325;28;20443;-66
2023/11/16 06:03:27;;;;;;;17.70;7.30;;;;;;;11.97;97.92;100766.25;4949093;29;20043;-66
2023/11/16 06:05:57;;;;;;;20.90;7.10;;;;;;;11.68;96.76;100766.03;4932142;29;20062;-65
2023/11/16 06:08:24;;;;;;;18.20;6.45;;;;;;;12.31;97.69;100772.66;4948646;28;20055;-64
2023/11/16 06:10:51;;;;;;;17.08;7.20;;;;;;;12.00;96.89;100755.41;4934559;29;20048;-64
2023/11/16 06:13:22;;;;;;;13.95;6.43;;;;;;;12.32;96.35;100737.56;4933689;29;20407;-64
2023/11/16 06:15:49;;;;;;;16.17;5.97;;;;;;;12.45;95.48;100720.81;4932993;29;20434;-64
2023/11/16 06:18:17;;;;;;;19.52;6.10;;;;;;;12.15;95.85;100712.72;4934337;29;20048;-66
2023/11/16 06:20:45;;;;;;;19.73;5.22;;;;;;;11.99;95.91;100692.22;4930613;29;20055;-63
2023/11/16 06:23:13;;;;;;;15.98;6.28;;;;;;;11.71;97.00;100679.84;4927745;29;20162;-63
2023/11/16 06:25:40;;;;;;;16.55;6.00;;;;;;;11.71;100.00;100679.84;4933410;29;20373;-64
2023/11/16 06:28:07;;;;;;;15.68;5.45;;;;;;;11.59;100.00;100685.97;4933558;29;20052;-66
2023/11/16 06:30:34;;;;;;;16.60;5.85;;;;;;;11.97;99.80;100667.72;4947434;28;20065;-66
2023/11/16 06:33:02;;;;;;;14.90;5.40;;;;;;;12.11;97.59;100660.09;4948573;29;20063;-67
2023/11/16 06:35:29;;;;;;;17.63;5.70;;;;;;;12.05;98.42;100646.75;4936636;28;20063;-66
2023/11/16 06:37:57;;;;;;;14.85;5.50;;;;;;;11.63;99.00;100631.75;4939963;29;20047;-67
2023/11/16 06:40:25;;;;;;;13.35;5.38;;;;;;;12.11;98.91;100612.31;4933818;29;20054;-67
2023/11/16 06:42:52;;;;;;;16.23;5.50;;;;;;;11.95;98.59;100606.50;4934085;29;20055;-66
2023/11/16 06:45:21;;;;;;;19.27;6.38;;;;;;;11.73;99.64;100608.59;4934638;29;20055;-65
2023/11/16 06:47:50;;;;;;;20.58;5.78;;;;;;;11.65;99.83;100587.31;4933949;29;20059;-66
2023/11/16 06:50:17;;;;;;;15.15;5.00;;;;;;;11.59;100.00;100580.31;4932874;29;20056;-66
2023/11/16 06:52:45;;;;;;;14.30;6.47;;;;;;;11.61;100.00;100561.50;4934593;29;20051;-64
2023/11/16 06:55:13;;;;;;;14.48;5.45;;;;;;;12.02;100.00;100551.59;4932828;29;20048;-64
2023/11/16 06:57:41;;;;;;;16.02;6.10;;;;;;;11.70;99.50;100543.03;4931918;29;20063;-64
2023/11/16 07:00:15;;;;;;;14.63;6.03;;;;;;;11.76;100.00;100528.75;4935144;28;20055;-67
2023/11/16 07:02:44;;;;;;;14.55;5.68;;;;;;;11.86;100.00;100522.06;4932420;29;20054;-66
2023/11/16 07:05:12;;;;;;;13.40;5.30;;;;;;;11.71;100.00;100500.50;4933829;29;20043;-66
2023/11/16 07:07:39;;;;;;;17.27;6.40;;;;;;;11.51;100.00;100481.81;4948950;29;20515;-66
2023/11/16 07:10:10;;;;;;;16.25;5.68;;;;;;;11.58;100.00;100479.38;4934093;29;20404;-64
2023/11/16 07:12:41;;;;;;;11.68;5.40;;;;;;;11.79;100.00;100464.59;4957311;28;20040;-64
2023/11/16 07:15:14;;;;;;;18.23;5.50;;;;;;;11.97;100.00;100462.63;4933965;29;20691;-65
2023/11/16 07:17:43;;;;;;;15.98;5.47;;;;;;;12.08;100.00;100467.44;4934056;29;20054;-64
2023/11/16 07:20:14;;;;;;;26.90;12.43;;;;;;;11.86;99.48;100451.13;4934009;29;20043;-65
2023/11/16 07:22:42;;;;;;;14.98;5.63;;;;;;;11.64;100.00;100439.44;4933112;29;20400;-64
2023/11/16 07:25:09;;;;;;;21.38;5.18;;;;;;;11.72;100.00;100431.19;4933768;29;20056;-64
2023/11/16 07:27:39;;;;;;;16.98;5.53;;;;;;;11.33;100.00;100412.09;4934138;29;20052;-65
2023/11/16 07:30:08;;;;;;;19.70;5.72;;;;;;;11.74;100.00;100400.50;4934151;29;20394;-65
2023/11/16 07:32:35;;;;;;;13.20;5.28;;;;;;;11.57;100.00;100406.84;4948134;29;20412;-64
2023/11/16 07:35:14;;;;;;;12.05;5.18;;;;;;;11.41;100.00;100391.13;4950893;28;20073;-64
2023/11/16 07:37:45;;;;;;;16.98;5.13;;;;;;;11.60;100.00;100388.81;4933732;29;20062;-64
2023/11/16 07:40:14;;;;;;;14.52;5.05;;;;;;;11.82;100.00;100396.94;4927055;29;20638;-64
2023/11/16 07:42:42;;;;;;;16.13;4.75;;;;;;;11.60;100.00;100397.91;4933205;29;20051;-64
2023/11/16 07:45:11;;;;;;;14.25;4.43;;;;;;;11.78;100.00;100396.78;4979430;28;20566;-64
2023/11/16 07:47:41;;;;;;;21.52;5.00;;;;;;;11.67;100.00;100372.59;4967058;28;20063;-65
2023/11/16 07:50:11;;;;;;;14.95;4.90;;;;;;;11.51;100.00;100369.53;4946164;29;20538;-64
2023/11/16 07:52:47;;;;;;;14.50;5.07;;;;;;;11.31;100.00;100371.03;4966483;28;20111;-68
2023/11/16 07:55:25;;;;;;;20.63;5.10;;;;;;;11.41;100.00;100385.63;4931932;29;20051;-67
2023/11/16 07:57:55;;;;;;;17.85;4.65;;;;;;;11.48;100.00;100403.28;4939537;29;20039;-68
2023/11/16 08:00:34;;;;;;;17.90;4.45;;;;;;;11.51;100.00;100413.66;4949136;28;20056;-66
2023/11/16 08:05:48;;;;;;;21.95;5.22;;;;;;;11.35;100.00;100409.78;4954829;28;20067;-63
2023/11/16 08:08:18;;;;;;;14.88;4.60;;;;;;;11.73;100.00;100399.72;4938663;29;20066;-63
2023/11/16 08:10:48;;;;;;;10.77;3.90;;;;;;;11.93;100.00;100392.66;4935941;29;20051;-68
2023/11/16 08:13:17;;;;;;;18.98;6.03;;;;;;;11.79;100.00;100398.38;4929860;29;20055;-69
2023/11/16 08:15:52;;;;;;;21.57;8.60;;;;;;;12.00;100.00;100390.19;4982710;28;20525;-69
2023/11/16 08:18:24;;;;;;;17.55;4.88;;;;;;;11.86;100.00;100384.06;4932428;29;20057;-65
2023/11/16 08:20:53;;;;;;;15.57;4.25;;;;;;;11.94;100.00;100356.44;4970417;28;20055;-70
2023/11/16 08:23:21;;;;;;;14.05;4.03;;;;;;;12.04;100.00;100347.81;4942672;29;20063;-68
2023/11/16 08:25:50;;;;;;;15.90;4.50;;;;;;;12.15;100.00;100340.75;4937738;29;20060;-63
2023/11/16 08:28:19;;;;;;;15.43;4.10;;;;;;;12.28;100.00;100323.16;4938434;28;20055;-63
2023/11/16 08:30:48;;;;;;;18.25;3.80;;;;;;;12.49;98.39;100323.16;4938221;29;20638;-65
2023/11/16 08:33:17;;;;;;;16.13;4.18;;;;;;;12.64;98.72;100328.09;4950955;29;20056;-65
2023/11/16 08:35:44;;;;;;;15.80;4.30;;;;;;;12.91;97.84;100333.09;4950442;28;20055;-65
2023/11/16 08:38:14;;;;;;;14.43;3.75;;;;;;;12.77;95.14;100332.56;4939577;29;20047;-66
2023/11/16 08:40:45;;;;;;;13.95;3.53;;;;;;;12.91;95.17;100321.22;4965319;28;20048;-65
2023/11/16 08:43:12;;;;;;;16.92;5.40;;;;;;;12.72;94.08;100324.47;4937398;29;20055;-65
2023/11/16 08:45:41;;;;;;;18.10;4.20;;;;;;;12.68;94.63;100314.41;4918190;29;20055;-63
2023/11/16 08:48:16;;;;;;;18.60;5.45;;;;;;;11.82;97.90;100300.34;4936597;29;20052;-67
2023/11/16 08:50:52;;;;;;;15.90;5.68;;;;;;;11.73;100.00;100288.53;4937258;29;20062;-67
2023/11/16 08:53:32;;;;;;;12.88;4.50;;;;;;;11.99;100.00;100284.50;4952119;28;20051;-65
2023/11/16 08:56:02;;;;;;;16.67;3.55;;;;;;;12.47;99.47;100281.25;4936361;29;20514;-67
2023/11/16 08:58:31;;;;;;;17.70;3.63;;;;;;;12.29;98.92;100282.53;4938109;28;20052;-66
2023/11/16 09:01:10;;;;;;;10.07;3.13;;;;;;;12.27;95.90;100277.31;4922058;29;20051;-65
2023/11/16 09:03:45;;;;;;;10.73;2.85;;;;;;;12.03;98.55;100270.84;4938470;29;20497;-64
2023/11/16 09:06:16;;;;;;;11.45;3.30;;;;;;;12.12;100.00;100249.50;4963888;28;20055;-66
2023/11/16 09:08:48;;;;;;;15.45;3.78;;;;;;;12.28;100.00;100232.03;4948858;28;20085;-66
2023/11/16 09:11:17;;;;;;;11.98;3.03;;;;;;;12.46;98.70;100199.56;4951515;28;20052;-68
2023/11/16 09:13:45;;;;;;;7.60;2.90;;;;;;;12.41;98.95;100172.13;4935228;29;20766;-66
2023/11/16 09:16:12;;;;;;;9.65;2.72;;;;;;;12.57;97.23;100175.06;4934359;29;20047;-67
2023/11/16 09:18:41;;;;;;;11.30;2.40;;;;;;;12.43;98.93;100169.81;4945922;28;20075;-65
2023/11/16 09:21:09;;;;;;;7.03;2.80;;;;;;;12.88;98.26;100158.81;4932268;29;20047;-67
2023/11/16 09:23:37;;;;;;;10.68;2.47;;;;;;;13.10;94.25;100156.47;4961931;28;20047;-65
2023/11/16 09:26:04;;;;;;;9.90;2.35;;;;;;;12.61;94.68;100148.38;4929904;29;20428;-65
2023/11/16 09:28:35;;;;;;;11.35;3.08;;;;;;;12.36;96.29;100141.97;4935441;29;20048;-65
2023/11/16 09:31:13;;;;;;;8.82;2.15;;;;;;;12.46;95.08;100131.28;4930925;29;20150;-65
2023/11/16 09:33:40;;;;;;;7.25;2.33;;;;;;;12.36;95.33;100111.59;4960533;28;20051;-65
2023/11/16 09:36:13;;;;;;;6.22;2.38;;;;;;;11.98;95.97;100097.13;4945283;28;20043;-65
2023/11/16 09:38:48;;;;;;;7.05;2.45;;;;;;;11.44;100.00;100103.69;4932231;29;20051;-65
2023/11/16 09:41:23;;;;;;;10.68;2.65;;;;;;;11.56;100.00;100085.25;4935461;29;20055;-65
2023/11/16 09:43:54;;;;;;;10.88;6.38;;;;;;;11.50;100.00;100059.03;4947584;28;20052;-66
2023/11/16 09:46:30;;;;;;;7.40;2.20;;;;;;;11.10;100.00;100055.88;4948364;29;20055;-65
2023/11/16 09:48:59;;;;;;;9.35;2.90;;;;;;;11.13;100.00;100048.88;4933038;29;20051;-64
2023/11/16 09:51:29;;;;;;;6.45;2.00;;;;;;;11.18;100.00;100037.66;4935290;29;20067;-63
2023/11/16 09:54:01;;;;;;;8.85;2.10;;;;;;;11.35;100.00;100024.56;4948389;28;20059;-64
2023/11/16 09:56:30;;;;;;;6.63;2.00;;;;;;;11.44;100.00;99996.94;4935090;29;20051;-63
2023/11/16 09:59:13;;;;;;;7.70;2.10;;;;;;;11.42;100.00;99985.44;4959492;28;20066;-65
2023/11/16 10:01:52;;;;;;;7.90;1.88;;;;;;;10.95;100.00;99978.47;4938878;29;20051;-64
2023/11/16 10:04:20;;;;;;;9.48;2.42;;;;;;;11.03;100.00;99967.41;4936315;29;20435;-63
2023/11/16 10:06:50;;;;;;;10.00;2.15;;;;;;;10.99;100.00;99960.13;4959426;28;20063;-63
2023/11/16 10:09:18;;;;;;;6.93;1.90;;;;;;;10.71;100.00;99967.28;4937154;29;20051;-63
2023/11/16 10:11:45;;;;;;;5.05;1.63;;;;;;;11.12;100.00;99959.09;4932270;29;20051;-63
2023/11/16 10:14:12;;;;;;;7.38;2.13;;;;;;;11.00;100.00;99953.50;4935772;29;20055;-64
2023/11/16 10:16:39;;;;;;;9.55;3.22;;;;;;;11.29;100.00;99954.25;4937346;29;20068;-64
2023/11/16 10:19:10;;;;;;;9.75;2.13;;;;;;;10.80;100.00;99949.56;4937445;29;20634;-64
2023/11/16 10:21:44;;;;;;;10.93;2.20;;;;;;;10.71;100.00;99929.53;4963576;28;20052;-64
2023/11/16 10:24:12;;;;;;;7.80;2.25;;;;;;;10.85;100.00;99918.25;4938638;29;20070;-63
2023/11/16 10:26:39;;;;;;;8.35;2.50;;;;;;;10.84;100.00;99922.16;4936358;28;20055;-62
2023/11/16 10:29:07;;;;;;;10.10;3.25;;;;;;;10.90;100.00;99902.34;4941367;29;20246;-64
2023/11/16 10:31:35;;;;;;;8.65;2.50;;;;;;;10.91;100.00;99889.38;4938034;29;20050;-63
2023/11/16 10:34:04;;;;;;;7.35;2.10;;;;;;;10.85;100.00;99899.78;4933201;29;20059;-64
2023/11/16 10:36:32;;;;;;;7.03;2.40;;;;;;;10.55;100.00;99887.19;4945178;28;20071;-65
2023/11/16 10:39:01;;;;;;;8.18;2.47;;;;;;;10.77;100.00;99886.88;4938130;29;20047;-64
2023/11/16 10:41:29;;;;;;;8.38;2.53;;;;;;;10.46;100.00;99880.13;4931384;29;20043;-64
2023/11/16 10:43:57;;;;;;;6.70;2.10;;;;;;;10.88;100.00;99870.78;4932376;29;20086;-64
2023/11/16 10:46:29;;;;;;;5.78;2.15;;;;;;;10.69;100.00;99868.47;4932438;29;20075;-64
2023/11/16 10:48:57;;;;;;;6.65;2.08;;;;;;;10.65;100.00;99863.97;4936834;29;20055;-64
2023/11/16 10:51:27;;;;;;;5.65;2.13;;;;;;;10.83;100.00;99862.69;4946909;29;20427;-64
2023/11/16 10:53:57;;;;;;;11.48;6.03;;;;;;;10.64;100.00;99845.81;4937308;29;20043;-64
2023/11/16 10:56:26;;;;;;;13.52;7.70;;;;;;;10.77;100.00;99834.56;4932287;29;20539;-64
2023/11/16 10:58:54;;;;;;;11.52;4.43;;;;;;;11.04;100.00;99822.16;4937273;29;20055;-64
2023/11/16 11:01:22;;;;;;;9.57;3.88;;;;;;;10.88;100.00;99813.69;4963865;28;20059;-64
2023/11/16 11:03:50;;;;;;;7.82;4.22;;;;;;;11.13;100.00;99800.84;4933193;29;20310;-66
2023/11/16 11:06:22;;;;;;;10.48;2.85;;;;;;;10.72;100.00;99789.88;4931096;29;20062;-64
2023/11/16 11:08:53;;;;;;;6.28;2.17;;;;;;;11.46;100.00;99770.47;4930422;29;20383;-63
2023/11/16 11:11:24;;;;;;;8.82;2.65;;;;;;;11.19;100.00;99767.19;4932546;29;20067;-64
2023/11/16 11:13:57;;;;;;;7.88;2.65;;;;;;;11.42;100.00;99753.81;4932988;29;20048;-65
2023/11/16 11:16:27;;;;;;;7.00;2.85;;;;;;;11.26;100.00;99742.63;4931014;29;20058;-69
2023/11/16 11:18:57;;;;;;;10.82;3.20;;;;;;;11.35;100.00;99731.50;4932873;29;20549;-64
2023/11/16 11:21:27;;;;;;;6.28;3.05;;;;;;;11.20;100.00;99723.91;4931600;29;20063;-64
2023/11/16 11:24:05;;;;;;;8.47;2.80;;;;;;;11.22;100.00;99711.41;4935003;29;20044;-65
2023/11/16 11:26:48;;;;;;;8.90;2.92;;;;;;;11.07;100.00;99714.81;4938772;29;20058;-63
2023/11/16 11:29:16;;;;;;;9.45;2.90;;;;;;;11.42;100.00;99706.16;4966934;28;20073;-64